Airfield :
LOGIN :

Register | Disclaimer

   EN    FR    IT 

 










Legend :    VFR   Marginal VFR   IFR   Intensive IFR   Very Intensive IFR
Visi :
Ceiling :
>= 8 km
>= 3000ft
5 to 8 km
1000 to 3000 ft
1500m to 5 km
500 to 1000 ft
800 to 1500m
200 to 500 ft
< 800m
< 200 ft
Symbols :   Thunderstorms  Fog  Heavy snow  Heavy precipitations  Wind > 20 kt
SIGMETs :     Misc.  Thunderstorms  Icing  Turbulence  Mountain Waves  Volcanic Ashes






- Airport Elevation : 289 ft
- IATA code : ZAD


LDZD - Zadar

CURRENT METAR :
  • 050330Z 15014KT 120V190 9999 -RA FEW030 SCT040 18/16 Q0999 TEMPO 15020G30KT

EXPIRED METARs :
  • 050300Z 14018KT 110V170 9999 FEW030 SCT040 18/16 Q0998 TEMPO VRB15G25KT 2000 TSRA SCT020CB BKN025
  • 050230Z 13019KT 100V160 9999 FEW030 18/16 Q0998 TEMPO VRB15G25KT 2000 TSRA SCT020CB BKN025
  • 050200Z 14018KT 110V170 9999 FEW030 SCT040 18/16 Q0998 TEMPO VRB15G25KT 2000 TSRA SCT020CB BKN025
  • 050130Z 13017KT 100V170 9999 -RA FEW030 SCT040 17/16 Q0998
  • 050100Z 13020KT 100V160 9999 -RA FEW030 SCT040 18/16 Q////

TAF TAF LDZD
Valid from the 05 at 00:00 until the 06 at 00:00 UTC


042325Z 0500/0600 15018KT 9999 SCT050 TX20/0513Z TN16/0523Z
PROB40
TEMPO 0500/0505 15022G32KT
TEMPO 0500/0518 4000 SHRA SCT010 FEW020TCU BKN025
PROB30
TEMPO 0500/0515 VRB15G25KT 2000 TSRA SCT010 SCT020CB BKN025
BECMG 0505/0507 22010KT
BECMG 0512/0514 15014KT



MET'MAP, your aeronautical weather chart ! - Copyright ORBIFLY December 2007 - Disclaimer

ORBIFLY MET'MAP TEAM :

Programming & Development : Alexandra Zaïnal
Concept & original design : Baudouin d'Aumeries
Assistance for programming : Marc-Olivier Méhu
Technical & hardware support : Manuel Goepfert

Contact : metmap@orbifly.com




SOURCES & CREDITS :

   NOAA